sensor_id;sensor_type;location;lat;lon;timestamp;pressure;altitude;pressure_sealevel;temperature;humidity
69982;BME280;57319;56.274;43.980;2023-01-28T00:00:34;100243.22;;;-3.49;86.95
69982;BME280;57319;56.274;43.980;2023-01-28T00:03:00;100251.34;;;-3.54;87.00
69982;BME280;57319;56.274;43.980;2023-01-28T00:05:26;100248.63;;;-3.58;87.14
69982;BME280;57319;56.274;43.980;2023-01-28T00:07:51;100243.69;;;-3.56;87.12
69982;BME280;57319;56.274;43.980;2023-01-28T00:10:17;100246.13;;;-3.58;87.09
69982;BME280;57319;56.274;43.980;2023-01-28T00:12:43;100254.38;;;-3.60;87.31
69982;BME280;57319;56.274;43.980;2023-01-28T00:15:09;100250.22;;;-3.60;87.01
69982;BME280;57319;56.274;43.980;2023-01-28T00:17:36;100253.75;;;-3.56;87.11
69982;BME280;57319;56.274;43.980;2023-01-28T00:20:05;100253.03;;;-3.53;87.56
69982;BME280;57319;56.274;43.980;2023-01-28T00:22:31;100261.47;;;-3.53;86.87
69982;BME280;57319;56.274;43.980;2023-01-28T00:24:57;100259.66;;;-3.55;87.02
69982;BME280;57319;56.274;43.980;2023-01-28T00:27:23;100264.84;;;-3.52;86.96
69982;BME280;57319;56.274;43.980;2023-01-28T00:29:49;100266.81;;;-3.47;86.89
69982;BME280;57319;56.274;43.980;2023-01-28T00:32:14;100265.69;;;-3.52;87.17
69982;BME280;57319;56.274;43.980;2023-01-28T00:34:40;100266.72;;;-3.48;86.91
69982;BME280;57319;56.274;43.980;2023-01-28T00:37:06;100269.09;;;-3.51;86.89
69982;BME280;57319;56.274;43.980;2023-01-28T00:39:31;100265.69;;;-3.52;87.05
69982;BME280;57319;56.274;43.980;2023-01-28T00:41:57;100269.31;;;-3.47;87.39
69982;BME280;57319;56.274;43.980;2023-01-28T00:44:23;100269.94;;;-3.51;87.03
69982;BME280;57319;56.274;43.980;2023-01-28T00:46:48;100268.41;;;-3.49;87.24
69982;BME280;57319;56.274;43.980;2023-01-28T00:49:14;100262.47;;;-3.49;87.16
69982;BME280;57319;56.274;43.980;2023-01-28T00:51:40;100264.00;;;-3.53;87.34
69982;BME280;57319;56.274;43.980;2023-01-28T00:54:05;100266.59;;;-3.51;87.22
69982;BME280;57319;56.274;43.980;2023-01-28T00:56:31;100268.31;;;-3.50;87.49
69982;BME280;57319;56.274;43.980;2023-01-28T00:58:57;100263.91;;;-3.54;87.60
69982;BME280;57319;56.274;43.980;2023-01-28T01:01:25;100263.56;;;-3.61;87.77
69982;BME280;57319;56.274;43.980;2023-01-28T01:03:52;100269.56;;;-3.59;87.93
69982;BME280;57319;56.274;43.980;2023-01-28T01:06:32;100269.56;;;-3.59;88.10
69982;BME280;57319;56.274;43.980;2023-01-28T01:09:00;100267.22;;;-3.55;87.49
69982;BME280;57319;56.274;43.980;2023-01-28T01:11:25;100267.06;;;-3.59;88.25
69982;BME280;57319;56.274;43.980;2023-01-28T01:13:56;100260.59;;;-3.53;88.32
69982;BME280;57319;56.274;43.980;2023-01-28T01:16:24;100270.03;;;-3.49;87.97
69982;BME280;57319;56.274;43.980;2023-01-28T01:18:51;100271.00;;;-3.47;87.72
69982;BME280;57319;56.274;43.980;2023-01-28T01:21:19;100270.72;;;-3.52;87.77
69982;BME280;57319;56.274;43.980;2023-01-28T01:23:46;100266.50;;;-3.53;88.05
69982;BME280;57319;56.274;43.980;2023-01-28T01:26:12;100269.09;;;-3.51;87.99
69982;BME280;57319;56.274;43.980;2023-01-28T01:28:38;100271.84;;;-3.47;87.63
69982;BME280;57319;56.274;43.980;2023-01-28T01:31:06;100271.91;;;-3.45;87.68
69982;BME280;57319;56.274;43.980;2023-01-28T01:33:32;100273.81;;;-3.41;87.67
69982;BME280;57319;56.274;43.980;2023-01-28T01:35:58;100275.69;;;-3.37;88.18
69982;BME280;57319;56.274;43.980;2023-01-28T01:38:25;100267.78;;;-3.28;87.71
69982;BME280;57319;56.274;43.980;2023-01-28T01:40:51;100270.22;;;-3.30;87.61
69982;BME280;57319;56.274;43.980;2023-01-28T01:43:19;100273.75;;;-3.26;87.55
69982;BME280;57319;56.274;43.980;2023-01-28T01:45:49;100277.91;;;-3.27;87.18
69982;BME280;57319;56.274;43.980;2023-01-28T01:48:28;100278.84;;;-3.25;86.76
69982;BME280;57319;56.274;43.980;2023-01-28T01:51:24;100272.56;;;-3.33;87.22
69982;BME280;57319;56.274;43.980;2023-01-28T01:53:54;100285.78;;;-3.37;87.35
69982;BME280;57319;56.274;43.980;2023-01-28T01:56:25;100295.75;;;-3.38;87.44
69982;BME280;57319;56.274;43.980;2023-01-28T01:58:54;100297.28;;;-3.42;87.80
69982;BME280;57319;56.274;43.980;2023-01-28T02:01:22;100291.44;;;-3.41;87.54
69982;BME280;57319;56.274;43.980;2023-01-28T02:04:04;100295.69;;;-3.40;87.78
69982;BME280;57319;56.274;43.980;2023-01-28T02:06:34;100293.25;;;-3.38;87.90
69982;BME280;57319;56.274;43.980;2023-01-28T02:09:01;100297.56;;;-3.36;87.59
69982;BME280;57319;56.274;43.980;2023-01-28T02:11:31;100289.25;;;-3.35;87.68
69982;BME280;57319;56.274;43.980;2023-01-28T02:14:00;100292.13;;;-3.27;87.96
69982;BME280;57319;56.274;43.980;2023-01-28T02:16:28;100287.50;;;-3.19;87.89
69982;BME280;57319;56.274;43.980;2023-01-28T02:18:55;100300.25;;;-3.16;87.55
69982;BME280;57319;56.274;43.980;2023-01-28T02:21:35;100300.25;;;-3.16;86.91
69982;BME280;57319;56.274;43.980;2023-01-28T02:30:15;100297.72;;;-3.16;86.81
69982;BME280;57319;56.274;43.980;2023-01-28T02:32:55;100302.63;;;-3.19;86.79
69982;BME280;57319;56.274;43.980;2023-01-28T02:40:33;100306.47;;;-3.10;86.18
69982;BME280;57319;56.274;43.980;2023-01-28T02:43:49;100309.75;;;-3.11;86.46
69982;BME280;57319;56.274;43.980;2023-01-28T02:46:17;100312.38;;;-3.09;86.10
69982;BME280;57319;56.274;43.980;2023-01-28T02:49:05;100308.28;;;-3.07;85.97
69982;BME280;57319;56.274;43.980;2023-01-28T02:51:42;100310.72;;;-3.09;86.15
69982;BME280;57319;56.274;43.980;2023-01-28T02:54:23;100317.50;;;-3.08;86.11
69982;BME280;57319;56.274;43.980;2023-01-28T02:59:50;100322.28;;;-3.12;85.74
69982;BME280;57319;56.274;43.980;2023-01-28T03:05:08;100324.81;;;-3.12;85.44
69982;BME280;57319;56.274;43.980;2023-01-28T03:07:37;100321.28;;;-3.16;85.23
69982;BME280;57319;56.274;43.980;2023-01-28T03:10:05;100327.09;;;-3.17;85.19
69982;BME280;57319;56.274;43.980;2023-01-28T03:12:34;100320.41;;;-3.16;85.30
69982;BME280;57319;56.274;43.980;2023-01-28T03:15:25;100321.19;;;-3.17;85.15
69982;BME280;57319;56.274;43.980;2023-01-28T03:18:16;100322.75;;;-3.19;85.09
69982;BME280;57319;56.274;43.980;2023-01-28T03:23:53;100331.03;;;-3.22;84.81
69982;BME280;57319;56.274;43.980;2023-01-28T03:27:44;100327.72;;;-3.21;84.53
69982;BME280;57319;56.274;43.980;2023-01-28T03:30:16;100330.25;;;-3.21;84.76
69982;BME280;57319;56.274;43.980;2023-01-28T03:33:02;100332.06;;;-3.18;84.49
69982;BME280;57319;56.274;43.980;2023-01-28T03:35:48;100332.84;;;-3.19;84.38
69982;BME280;57319;56.274;43.980;2023-01-28T03:38:32;100339.63;;;-3.18;84.09
69982;BME280;57319;56.274;43.980;2023-01-28T03:41:07;100332.75;;;-3.21;83.96
69982;BME280;57319;56.274;43.980;2023-01-28T03:43:34;100322.19;;;-3.30;83.82
69982;BME280;57319;56.274;43.980;2023-01-28T03:46:00;100327.22;;;-3.30;83.93
69982;BME280;57319;56.274;43.980;2023-01-28T03:48:26;100330.38;;;-3.34;84.17
69982;BME280;57319;56.274;43.980;2023-01-28T03:50:54;100330.78;;;-3.43;84.22
69982;BME280;57319;56.274;43.980;2023-01-28T03:53:21;100328.88;;;-3.47;84.07
69982;BME280;57319;56.274;43.980;2023-01-28T03:55:49;100332.88;;;-3.51;84.31
69982;BME280;57319;56.274;43.980;2023-01-28T03:58:16;100340.69;;;-3.46;84.05
69982;BME280;57319;56.274;43.980;2023-01-28T04:00:42;100348.25;;;-3.46;84.16
69982;BME280;57319;56.274;43.980;2023-01-28T04:03:14;100341.63;;;-3.44;84.17
69982;BME280;57319;56.274;43.980;2023-01-28T04:05:45;100349.03;;;-3.47;83.49
69982;BME280;57319;56.274;43.980;2023-01-28T04:08:11;100349.47;;;-3.54;84.13
69982;BME280;57319;56.274;43.980;2023-01-28T04:10:40;100353.72;;;-3.53;83.99
69982;BME280;57319;56.274;43.980;2023-01-28T04:13:06;100352.31;;;-3.48;83.92
69982;BME280;57319;56.274;43.980;2023-01-28T04:15:32;100350.41;;;-3.52;84.14
69982;BME280;57319;56.274;43.980;2023-01-28T04:17:58;100347.81;;;-3.54;83.87
69982;BME280;57319;56.274;43.980;2023-01-28T04:20:25;100351.47;;;-3.49;83.81
69982;BME280;57319;56.274;43.980;2023-01-28T04:22:51;100357.09;;;-3.53;83.72
69982;BME280;57319;56.274;43.980;2023-01-28T04:25:16;100354.66;;;-3.51;83.81
69982;BME280;57319;56.274;43.980;2023-01-28T04:27:42;100352.94;;;-3.52;83.47
69982;BME280;57319;56.274;43.980;2023-01-28T04:30:08;100356.22;;;-3.53;83.66
69982;BME280;57319;56.274;43.980;2023-01-28T04:32:34;100361.25;;;-3.53;83.52
69982;BME280;57319;56.274;43.980;2023-01-28T04:35:00;100357.88;;;-3.54;83.41
69982;BME280;57319;56.274;43.980;2023-01-28T04:37:25;100356.91;;;-3.56;83.28
69982;BME280;57319;56.274;43.980;2023-01-28T04:39:51;100363.53;;;-3.58;82.96
69982;BME280;57319;56.274;43.980;2023-01-28T04:42:16;100364.16;;;-3.62;83.55
69982;BME280;57319;56.274;43.980;2023-01-28T04:44:42;100366.75;;;-3.61;82.99
69982;BME280;57319;56.274;43.980;2023-01-28T04:47:07;100368.22;;;-3.64;82.96
69982;BME280;57319;56.274;43.980;2023-01-28T04:49:33;100371.94;;;-3.58;82.94
69982;BME280;57319;56.274;43.980;2023-01-28T04:51:58;100374.72;;;-3.53;83.10
69982;BME280;57319;56.274;43.980;2023-01-28T04:54:24;100369.94;;;-3.48;82.71
69982;BME280;57319;56.274;43.980;2023-01-28T04:56:49;100371.59;;;-3.49;82.12
69982;BME280;57319;56.274;43.980;2023-01-28T04:59:15;100377.41;;;-3.50;82.20
69982;BME280;57319;56.274;43.980;2023-01-28T05:01:41;100378.03;;;-3.54;82.21
69982;BME280;57319;56.274;43.980;2023-01-28T05:04:07;100376.91;;;-3.59;82.56
69982;BME280;57319;56.274;43.980;2023-01-28T05:06:34;100371.09;;;-3.58;82.25
69982;BME280;57319;56.274;43.980;2023-01-28T05:08:59;100376.03;;;-3.60;82.32
69982;BME280;57319;56.274;43.980;2023-01-28T05:11:25;100376.91;;;-3.59;82.50
69982;BME280;57319;56.274;43.980;2023-01-28T05:13:53;100381.94;;;-3.59;82.30
69982;BME280;57319;56.274;43.980;2023-01-28T05:16:19;100382.63;;;-3.62;82.04
69982;BME280;57319;56.274;43.980;2023-01-28T05:18:44;100370.50;;;-3.69;81.91
69982;BME280;57319;56.274;43.980;2023-01-28T05:21:12;100386.72;;;-3.64;82.05
69982;BME280;57319;56.274;43.980;2023-01-28T05:23:38;100387.50;;;-3.65;82.41
69982;BME280;57319;56.274;43.980;2023-01-28T05:26:04;100383.16;;;-3.67;82.52
69982;BME280;57319;56.274;43.980;2023-01-28T05:28:29;100392.44;;;-3.66;82.35
69982;BME280;57319;56.274;43.980;2023-01-28T05:30:55;100392.38;;;-3.68;82.21
69982;BME280;57319;56.274;43.980;2023-01-28T05:33:20;100395.13;;;-3.63;81.88
69982;BME280;57319;56.274;43.980;2023-01-28T05:35:46;100401.56;;;-3.68;81.93
69982;BME280;57319;56.274;43.980;2023-01-28T05:38:14;100394.72;;;-3.71;81.30
69982;BME280;57319;56.274;43.980;2023-01-28T05:40:39;100391.41;;;-3.70;81.62
69982;BME280;57319;56.274;43.980;2023-01-28T05:43:05;100400.16;;;-3.63;82.09
69982;BME280;57319;56.274;43.980;2023-01-28T05:45:30;100406.31;;;-3.58;81.48
69982;BME280;57319;56.274;43.980;2023-01-28T05:47:56;100403.03;;;-3.57;81.11
69982;BME280;57319;56.274;43.980;2023-01-28T05:50:21;100401.06;;;-3.63;81.13
69982;BME280;57319;56.274;43.980;2023-01-28T05:52:47;100405.28;;;-3.62;80.71
69982;BME280;57319;56.274;43.980;2023-01-28T05:55:13;100408.47;;;-3.64;80.88
69982;BME280;57319;56.274;43.980;2023-01-28T05:57:38;100419.44;;;-3.64;81.15
69982;BME280;57319;56.274;43.980;2023-01-28T06:00:04;100413.53;;;-3.64;80.95
69982;BME280;57319;56.274;43.980;2023-01-28T06:02:30;100423.19;;;-3.72;80.53
69982;BME280;57319;56.274;43.980;2023-01-28T06:04:56;100425.34;;;-3.78;80.92
69982;BME280;57319;56.274;43.980;2023-01-28T06:07:21;100423.63;;;-3.79;81.21
69982;BME280;57319;56.274;43.980;2023-01-28T06:09:48;100424.41;;;-3.80;80.76
69982;BME280;57319;56.274;43.980;2023-01-28T06:12:14;100417.38;;;-3.86;81.16
69982;BME280;57319;56.274;43.980;2023-01-28T06:14:40;100421.81;;;-3.82;80.72
69982;BME280;57319;56.274;43.980;2023-01-28T06:17:06;100422.75;;;-3.80;81.16
69982;BME280;57319;56.274;43.980;2023-01-28T06:19:32;100416.50;;;-3.86;81.39
69982;BME280;57319;56.274;43.980;2023-01-28T06:21:57;100425.88;;;-3.84;80.98
69982;BME280;57319;56.274;43.980;2023-01-28T06:24:23;100431.06;;;-3.81;81.11
69982;BME280;57319;56.274;43.980;2023-01-28T06:26:49;100429.44;;;-3.80;81.22
69982;BME280;57319;56.274;43.980;2023-01-28T06:29:14;100435.25;;;-3.81;80.88
69982;BME280;57319;56.274;43.980;2023-01-28T06:31:40;100425.88;;;-3.84;80.91
69982;BME280;57319;56.274;43.980;2023-01-28T06:34:05;100436.47;;;-3.89;81.08
69982;BME280;57319;56.274;43.980;2023-01-28T06:36:31;100439.56;;;-3.94;81.36
69982;BME280;57319;56.274;43.980;2023-01-28T06:38:57;100430.72;;;-4.02;80.67
69982;BME280;57319;56.274;43.980;2023-01-28T06:41:23;100448.94;;;-3.91;80.88
69982;BME280;57319;56.274;43.980;2023-01-28T06:43:48;100446.50;;;-3.89;80.73
69982;BME280;57319;56.274;43.980;2023-01-28T06:46:14;100447.56;;;-3.86;80.84
69982;BME280;57319;56.274;43.980;2023-01-28T06:48:40;100444.44;;;-3.82;80.77
69982;BME280;57319;56.274;43.980;2023-01-28T06:51:05;100448.88;;;-3.78;80.23
69982;BME280;57319;56.274;43.980;2023-01-28T06:53:31;100449.72;;;-3.77;80.63
69982;BME280;57319;56.274;43.980;2023-01-28T06:55:56;100449.63;;;-3.79;80.12
69982;BME280;57319;56.274;43.980;2023-01-28T06:58:22;100451.38;;;-3.78;80.31
69982;BME280;57319;56.274;43.980;2023-01-28T07:00:47;100454.75;;;-3.77;80.22
69982;BME280;57319;56.274;43.980;2023-01-28T07:03:13;100451.53;;;-3.75;80.42
69982;BME280;57319;56.274;43.980;2023-01-28T07:05:38;100453.47;;;-3.85;79.94
69982;BME280;57319;56.274;43.980;2023-01-28T07:08:04;100457.28;;;-3.92;79.83
69982;BME280;57319;56.274;43.980;2023-01-28T07:10:30;100452.50;;;-4.02;79.97
69982;BME280;57319;56.274;43.980;2023-01-28T07:12:55;100452.16;;;-3.94;79.97
69982;BME280;57319;56.274;43.980;2023-01-28T07:15:21;100461.28;;;-3.96;79.87
69982;BME280;57319;56.274;43.980;2023-01-28T07:17:47;100458.84;;;-3.94;80.32
69982;BME280;57319;56.274;43.980;2023-01-28T07:20:14;100461.88;;;-4.00;80.03
69982;BME280;57319;56.274;43.980;2023-01-28T07:22:40;100476.38;;;-3.96;80.57
69982;BME280;57319;56.274;43.980;2023-01-28T07:25:07;100479.50;;;-4.00;80.45
69982;BME280;57319;56.274;43.980;2023-01-28T07:27:33;100467.16;;;-4.10;80.50
69982;BME280;57319;56.274;43.980;2023-01-28T07:29:59;100473.41;;;-4.03;80.09
69982;BME280;57319;56.274;43.980;2023-01-28T07:32:24;100480.19;;;-4.02;80.44
69982;BME280;57319;56.274;43.980;2023-01-28T07:34:53;100473.41;;;-4.03;80.08
69982;BME280;57319;56.274;43.980;2023-01-28T07:37:20;100477.38;;;-4.07;80.18
69982;BME280;57319;56.274;43.980;2023-01-28T07:39:45;100485.59;;;-4.10;80.71
69982;BME280;57319;56.274;43.980;2023-01-28T07:42:11;100490.16;;;-4.04;80.30
69982;BME280;57319;56.274;43.980;2023-01-28T07:44:37;100483.53;;;-4.02;79.46
69982;BME280;57319;56.274;43.980;2023-01-28T07:47:04;100481.03;;;-4.02;79.50
69982;BME280;57319;56.274;43.980;2023-01-28T07:49:32;100489.56;;;-4.00;79.33
69982;BME280;57319;56.274;43.980;2023-01-28T07:51:58;100494.06;;;-3.94;79.87
69982;BME280;57319;56.274;43.980;2023-01-28T07:54:23;100491.47;;;-3.96;79.38
69982;BME280;57319;56.274;43.980;2023-01-28T07:56:49;100491.03;;;-3.88;79.37
69982;BME280;57319;56.274;43.980;2023-01-28T07:59:15;100490.34;;;-3.86;79.50
69982;BME280;57319;56.274;43.980;2023-01-28T08:01:40;100494.69;;;-3.83;79.78
69982;BME280;57319;56.274;43.980;2023-01-28T08:04:06;100496.47;;;-3.81;79.01
69982;BME280;57319;56.274;43.980;2023-01-28T08:06:31;100494.75;;;-3.82;79.28
69982;BME280;57319;56.274;43.980;2023-01-28T08:09:03;100497.69;;;-3.89;78.85
69982;BME280;57319;56.274;43.980;2023-01-28T08:11:31;100498.66;;;-3.87;79.21
69982;BME280;57319;56.274;43.980;2023-01-28T08:13:57;100497.34;;;-3.80;79.29
69982;BME280;57319;56.274;43.980;2023-01-28T08:16:23;100492.56;;;-3.90;79.15
69982;BME280;57319;56.274;43.980;2023-01-28T08:18:49;100494.75;;;-3.97;79.35
69982;BME280;57319;56.274;43.980;2023-01-28T08:21:14;100492.66;;;-3.89;79.41
69982;BME280;57319;56.274;43.980;2023-01-28T08:23:40;100485.91;;;-3.90;79.45
69982;BME280;57319;56.274;43.980;2023-01-28T08:26:05;100491.63;;;-3.93;79.25
69982;BME280;57319;56.274;43.980;2023-01-28T08:28:31;100482.84;;;-3.99;79.41
69982;BME280;57319;56.274;43.980;2023-01-28T08:30:59;100491.34;;;-3.97;79.22
69982;BME280;57319;56.274;43.980;2023-01-28T08:33:24;100488.06;;;-3.96;79.47
69982;BME280;57319;56.274;43.980;2023-01-28T08:35:50;100493.34;;;-4.06;79.00
69982;BME280;57319;56.274;43.980;2023-01-28T08:38:15;100484.53;;;-4.00;79.77
69982;BME280;57319;56.274;43.980;2023-01-28T08:40:42;100488.69;;;-3.85;79.10
69982;BME280;57319;56.274;43.980;2023-01-28T08:43:08;100487.81;;;-3.86;78.85
69982;BME280;57319;56.274;43.980;2023-01-28T08:45:33;100486.75;;;-3.89;79.06
69982;BME280;57319;56.274;43.980;2023-01-28T08:48:04;100487.44;;;-3.92;78.47
69982;BME280;57319;56.274;43.980;2023-01-28T08:50:33;100481.56;;;-3.93;78.32
69982;BME280;57319;56.274;43.980;2023-01-28T08:53:05;100479.81;;;-3.94;78.48
69982;BME280;57319;56.274;43.980;2023-01-28T08:55:32;100486.00;;;-3.88;78.59
69982;BME280;57319;56.274;43.980;2023-01-28T08:58:01;100478.16;;;-3.93;78.51
69982;BME280;57319;56.274;43.980;2023-01-28T09:00:27;100485.03;;;-3.90;78.36
69982;BME280;57319;56.274;43.980;2023-01-28T09:02:52;100471.06;;;-4.00;78.50
69982;BME280;57319;56.274;43.980;2023-01-28T09:05:19;100475.06;;;-4.04;78.63
69982;BME280;57319;56.274;43.980;2023-01-28T09:07:44;100472.19;;;-3.95;78.96
69982;BME280;57319;56.274;43.980;2023-01-28T09:10:11;100480.34;;;-3.84;78.83
69982;BME280;57319;56.274;43.980;2023-01-28T09:12:37;100477.47;;;-3.90;78.26
69982;BME280;57319;56.274;43.980;2023-01-28T09:15:03;100481.13;;;-3.85;78.84
69982;BME280;57319;56.274;43.980;2023-01-28T09:17:29;100480.50;;;-3.96;78.43
69982;BME280;57319;56.274;43.980;2023-01-28T09:19:55;100480.19;;;-4.02;78.75
69982;BME280;57319;56.274;43.980;2023-01-28T09:22:20;100476.78;;;-4.03;79.04
69982;BME280;57319;56.274;43.980;2023-01-28T09:24:46;100488.66;;;-4.00;79.05
69982;BME280;57319;56.274;43.980;2023-01-28T09:27:12;100481.81;;;-4.03;79.33
69982;BME280;57319;56.274;43.980;2023-01-28T09:29:37;100476.69;;;-4.04;78.65
69982;BME280;57319;56.274;43.980;2023-01-28T09:32:04;100487.44;;;-4.07;78.41
69982;BME280;57319;56.274;43.980;2023-01-28T09:34:31;100479.13;;;-4.06;79.07
69982;BME280;57319;56.274;43.980;2023-01-28T09:36:57;100474.88;;;-4.07;79.36
69982;BME280;57319;56.274;43.980;2023-01-28T09:39:22;100477.47;;;-4.05;78.99
69982;BME280;57319;56.274;43.980;2023-01-28T09:47:18;100477.91;;;-3.98;79.01
69982;BME280;57319;56.274;43.980;2023-01-28T09:49:48;100474.47;;;-4.00;79.03
69982;BME280;57319;56.274;43.980;2023-01-28T09:52:18;100475.91;;;-4.03;79.23
69982;BME280;57319;56.274;43.980;2023-01-28T09:54:52;100479.63;;;-4.12;79.20
69982;BME280;57319;56.274;43.980;2023-01-28T09:57:22;100472.94;;;-4.11;79.41
69982;BME280;57319;56.274;43.980;2023-01-28T09:59:50;100474.09;;;-4.06;79.37
69982;BME280;57319;56.274;43.980;2023-01-28T10:02:21;100469.56;;;-4.12;79.54
69982;BME280;57319;56.274;43.980;2023-01-28T10:10:15;100464.38;;;-4.15;78.84
69982;BME280;57319;56.274;43.980;2023-01-28T10:12:49;100466.69;;;-4.18;79.05
69982;BME280;57319;56.274;43.980;2023-01-28T10:18:08;100456.63;;;-4.18;78.57
69982;BME280;57319;56.274;43.980;2023-01-28T10:20:42;100461.88;;;-4.15;78.37
69982;BME280;57319;56.274;43.980;2023-01-28T10:23:47;100466.53;;;-4.21;78.13
69982;BME280;57319;56.274;43.980;2023-01-28T10:26:22;100466.28;;;-4.26;78.29
69982;BME280;57319;56.274;43.980;2023-01-28T10:28:53;100455.16;;;-4.29;78.30
69982;BME280;57319;56.274;43.980;2023-01-28T10:31:20;100455.44;;;-4.24;78.46
69982;BME280;57319;56.274;43.980;2023-01-28T10:33:46;100457.25;;;-4.22;79.08
69982;BME280;57319;56.274;43.980;2023-01-28T10:36:14;100444.41;;;-4.27;78.53
69982;BME280;57319;56.274;43.980;2023-01-28T10:38:42;100442.88;;;-4.24;78.67
69982;BME280;57319;56.274;43.980;2023-01-28T10:41:10;100445.72;;;-4.18;78.45
69982;BME280;57319;56.274;43.980;2023-01-28T10:43:39;100447.81;;;-4.11;78.18
69982;BME280;57319;56.274;43.980;2023-01-28T10:46:14;100446.09;;;-4.12;78.54
69982;BME280;57319;56.274;43.980;2023-01-28T10:51:08;100441.72;;;-4.30;78.07
69982;BME280;57319;56.274;43.980;2023-01-28T10:53:45;100446.63;;;-4.46;77.82
69982;BME280;57319;56.274;43.980;2023-01-28T10:56:15;100437.78;;;-4.54;78.42
69982;BME280;57319;56.274;43.980;2023-01-28T10:59:06;100440.16;;;-4.71;79.19
69982;BME280;57319;56.274;43.980;2023-01-28T11:02:04;100440.66;;;-4.77;79.45
69982;BME280;57319;56.274;43.980;2023-01-28T11:04:31;100439.88;;;-4.75;79.27
69982;BME280;57319;56.274;43.980;2023-01-28T11:07:17;100444.38;;;-4.85;79.14
69982;BME280;57319;56.274;43.980;2023-01-28T11:09:48;100442.88;;;-4.81;79.61
69982;BME280;57319;56.274;43.980;2023-01-28T11:12:26;100439.09;;;-4.74;79.54
69982;BME280;57319;56.274;43.980;2023-01-28T11:14:58;100436.88;;;-4.70;80.13
69982;BME280;57319;56.274;43.980;2023-01-28T11:17:27;100443.91;;;-4.64;78.79
69982;BME280;57319;56.274;43.980;2023-01-28T11:19:56;100456.47;;;-4.64;78.84
69982;BME280;57319;56.274;43.980;2023-01-28T11:24:50;100444.00;;;-4.63;78.60
69982;BME280;57319;56.274;43.980;2023-01-28T11:27:17;100449.38;;;-4.56;78.50
69982;BME280;57319;56.274;43.980;2023-01-28T11:29:47;100441.25;;;-4.52;78.25
69982;BME280;57319;56.274;43.980;2023-01-28T11:32:19;100436.13;;;-4.54;78.73
69982;BME280;57319;56.274;43.980;2023-01-28T11:34:54;100435.06;;;-4.72;77.34
69982;BME280;57319;56.274;43.980;2023-01-28T11:37:23;100435.31;;;-4.68;78.20
69982;BME280;57319;56.274;43.980;2023-01-28T11:40:01;100442.25;;;-4.64;77.37
69982;BME280;57319;56.274;43.980;2023-01-28T11:42:27;100451.53;;;-4.63;77.41
69982;BME280;57319;56.274;43.980;2023-01-28T11:44:53;100447.69;;;-4.71;76.99
69982;BME280;57319;56.274;43.980;2023-01-28T11:47:25;100454.78;;;-4.79;76.81
69982;BME280;57319;56.274;43.980;2023-01-28T11:55:43;100459.38;;;-4.71;77.77
69982;BME280;57319;56.274;43.980;2023-01-28T12:03:27;100451.09;;;-4.84;77.27
69982;BME280;57319;56.274;43.980;2023-01-28T12:08:35;100448.91;;;-4.92;77.63
69982;BME280;57319;56.274;43.980;2023-01-28T12:11:15;100454.03;;;-4.91;77.97
69982;BME280;57319;56.274;43.980;2023-01-28T12:13:59;100453.84;;;-4.94;77.30
69982;BME280;57319;56.274;43.980;2023-01-28T12:17:31;100450.84;;;-5.02;77.59
69982;BME280;57319;56.274;43.980;2023-01-28T12:42:06;100421.56;;;-5.16;77.78
69982;BME280;57319;56.274;43.980;2023-01-28T12:44:39;100428.78;;;-5.21;77.78
69982;BME280;57319;56.274;43.980;2023-01-28T12:47:16;100423.88;;;-5.19;78.61
69982;BME280;57319;56.274;43.980;2023-01-28T12:49:49;100436.13;;;-5.24;77.80
69982;BME280;57319;56.274;43.980;2023-01-28T12:52:35;100423.97;;;-5.31;77.98
69982;BME280;57319;56.274;43.980;2023-01-28T12:55:38;100433.03;;;-5.33;78.43
69982;BME280;57319;56.274;43.980;2023-01-28T12:58:10;100431.50;;;-5.31;78.36
69982;BME280;57319;56.274;43.980;2023-01-28T13:00:45;100424.16;;;-5.28;78.44
69982;BME280;57319;56.274;43.980;2023-01-28T13:03:37;100421.19;;;-5.36;78.51
69982;BME280;57319;56.274;43.980;2023-01-28T13:06:09;100419.72;;;-5.32;78.25
69982;BME280;57319;56.274;43.980;2023-01-28T13:08:37;100425.72;;;-5.43;78.32
69982;BME280;57319;56.274;43.980;2023-01-28T13:11:03;100421.00;;;-5.39;78.07
69982;BME280;57319;56.274;43.980;2023-01-28T13:13:32;100422.16;;;-5.34;78.51
69982;BME280;57319;56.274;43.980;2023-01-28T13:15:59;100421.38;;;-5.33;78.52
69982;BME280;57319;56.274;43.980;2023-01-28T13:21:03;100417.13;;;-5.20;78.23
69982;BME280;57319;56.274;43.980;2023-01-28T13:28:45;100411.78;;;-5.25;78.38
69982;BME280;57319;56.274;43.980;2023-01-28T13:31:13;100417.22;;;-5.19;78.60
69982;BME280;57319;56.274;43.980;2023-01-28T13:34:00;100411.22;;;-5.21;78.13
69982;BME280;57319;56.274;43.980;2023-01-28T13:36:30;100406.50;;;-5.16;78.73
69982;BME280;57319;56.274;43.980;2023-01-28T13:39:18;100399.25;;;-5.25;77.97
69982;BME280;57319;56.274;43.980;2023-01-28T13:44:26;100407.94;;;-5.20;78.41
69982;BME280;57319;56.274;43.980;2023-01-28T13:46:54;100398.06;;;-5.17;78.20
69982;BME280;57319;56.274;43.980;2023-01-28T13:49:31;100390.44;;;-5.05;77.98
69982;BME280;57319;56.274;43.980;2023-01-28T13:52:04;100385.41;;;-5.05;78.16
69982;BME280;57319;56.274;43.980;2023-01-28T13:54:34;100397.19;;;-5.04;77.79
69982;BME280;57319;56.274;43.980;2023-01-28T14:00:25;100385.59;;;-5.02;77.67
69982;BME280;57319;56.274;43.980;2023-01-28T14:03:45;100395.72;;;-5.00;77.37
69982;BME280;57319;56.274;43.980;2023-01-28T14:09:22;100397.78;;;-5.08;77.74
69982;BME280;57319;56.274;43.980;2023-01-28T14:15:03;100396.41;;;-5.03;78.28
69982;BME280;57319;56.274;43.980;2023-01-28T14:17:47;100394.19;;;-4.98;78.59
69982;BME280;57319;56.274;43.980;2023-01-28T14:22:43;100394.25;;;-4.97;77.82
69982;BME280;57319;56.274;43.980;2023-01-28T14:25:15;100388.09;;;-5.02;77.85
69982;BME280;57319;56.274;43.980;2023-01-28T14:27:44;100390.00;;;-4.98;77.81
69982;BME280;57319;56.274;43.980;2023-01-28T14:32:55;100392.81;;;-4.93;77.97